Time;durP1;ratioP1;P1;durP2;ratioP2;P2;SDS_P1;SDS_P2;PMS_P1;PMS_P2;Temp;Humidity;BMP_temperature;BMP_pressure;BME280_temperature;BME280_humidity;BME280_pressure;Samples;Min_cycle;Max_cycle;Signal;HPM_P1;HPM_P2
2023/08/24 02:43:56;;;;;;;10.60;3.70;;;;;;;18.73;71.74;99340.08;106635;1313;558134;-38
2023/08/24 02:46:22;;;;;;;5.70;3.50;;;;;;;18.71;71.70;99345.77;107241;1314;22249;-40
2023/08/24 02:48:47;;;;;;;8.40;4.10;;;;;;;18.70;71.45;99343.71;107244;1314;22508;-40
2023/08/24 02:51:13;;;;;;;9.60;4.20;;;;;;;18.68;71.25;99343.40;107240;1314;23000;-39
2023/08/24 02:53:38;;;;;;;9.10;3.90;;;;;;;18.66;71.50;99342.46;107228;1314;22488;-39
2023/08/24 02:56:03;;;;;;;13.80;3.90;;;;;;;18.64;71.36;99341.27;107103;1312;157549;-41
2023/08/24 02:58:29;;;;;;;7.40;3.70;;;;;;;18.61;71.41;99343.10;107407;1312;22316;-40
2023/08/24 03:00:55;;;;;;;6.40;3.70;;;;;;;18.58;71.65;99339.98;107421;1312;22267;-40
2023/08/24 03:03:21;;;;;;;6.60;3.80;;;;;;;18.56;72.32;99340.36;107415;1311;22516;-38
2023/08/24 03:05:56;;;;;;;10.50;3.50;;;;;;;18.54;71.81;99344.62;107481;1288;22321;-40
2023/08/24 03:08:22;;;;;;;6.20;4.00;;;;;;;18.54;71.82;99343.44;107483;1311;22282;-40
2023/08/24 03:10:47;;;;;;;10.80;3.70;;;;;;;18.53;71.58;99345.06;107505;1311;22309;-38
2023/08/24 03:13:13;;;;;;;8.30;4.00;;;;;;;18.52;71.92;99348.48;107468;1311;22221;-40
2023/08/24 03:15:39;;;;;;;8.20;3.90;;;;;;;18.52;72.11;99346.25;107491;1311;22434;-39
2023/08/24 03:18:04;;;;;;;7.70;4.10;;;;;;;18.49;71.75;99340.42;107484;1311;23086;-40
2023/08/24 03:20:29;;;;;;;6.40;3.80;;;;;;;18.47;72.49;99344.23;107477;1311;22469;-38
2023/08/24 03:22:54;;;;;;;7.50;4.10;;;;;;;18.43;72.56;99343.62;107465;1311;22257;-40
2023/08/24 03:25:21;;;;;;;11.00;3.90;;;;;;;18.41;72.69;99339.21;107476;1311;22558;-39
2023/08/24 03:27:47;;;;;;;7.80;4.10;;;;;;;18.39;72.53;99340.63;107478;1311;23077;-39
2023/08/24 03:30:13;;;;;;;14.60;4.10;;;;;;;18.37;72.90;99336.87;107488;1311;23048;-40
2023/08/24 03:32:40;;;;;;;8.90;3.70;;;;;;;18.36;72.84;99341.38;107483;1311;22327;-40
2023/08/24 03:35:06;;;;;;;7.00;3.80;;;;;;;18.35;72.67;99340.36;107477;1311;22248;-40
2023/08/24 03:37:32;;;;;;;7.60;4.00;;;;;;;18.34;72.66;99339.77;107476;1311;22217;-40
2023/08/24 03:39:57;;;;;;;9.10;4.30;;;;;;;18.34;72.97;99340.35;107499;1311;22284;-40
2023/08/24 03:42:23;;;;;;;8.90;4.40;;;;;;;18.32;72.85;99339.25;107340;1311;23940;-38
2023/08/24 03:44:48;;;;;;;12.10;4.00;;;;;;;18.32;72.52;99338.58;107338;1311;22503;-39
2023/08/24 03:47:13;;;;;;;9.80;3.90;;;;;;;18.30;72.63;99337.98;107467;1311;22472;-41
2023/08/24 03:49:38;;;;;;;7.20;4.00;;;;;;;18.31;72.88;99337.79;107481;1311;22203;-40
2023/08/24 03:52:04;;;;;;;10.20;4.20;;;;;;;18.30;73.01;99335.49;107488;1296;22253;-42
2023/08/24 03:54:30;;;;;;;11.70;3.90;;;;;;;18.30;72.79;99336.20;107422;1311;22339;-39
2023/08/24 03:56:55;;;;;;;12.50;4.30;;;;;;;18.30;72.21;99340.67;107394;1311;22275;-39
2023/08/24 03:59:20;;;;;;;9.40;4.60;;;;;;;18.28;72.54;99341.17;107400;1311;22384;-41
2023/08/24 04:01:45;;;;;;;16.80;4.30;;;;;;;18.26;72.52;99343.48;107421;1311;22507;-40
2023/08/24 04:04:11;;;;;;;14.90;4.30;;;;;;;18.25;72.84;99347.30;107408;1311;22480;-41
2023/08/24 04:06:36;;;;;;;9.90;4.70;;;;;;;18.26;72.49;99346.00;107396;1312;22229;-41
2023/08/24 04:09:01;;;;;;;9.50;4.30;;;;;;;18.27;72.60;99347.16;107409;1292;22254;-39
2023/08/24 04:11:27;;;;;;;11.70;4.10;;;;;;;18.27;73.06;99347.89;107382;1312;22394;-38
2023/08/24 04:13:52;;;;;;;11.40;4.30;;;;;;;18.26;72.95;99346.73;107417;1292;24214;-39
2023/08/24 04:16:18;;;;;;;9.30;4.10;;;;;;;18.25;73.26;99349.80;107431;1312;22577;-40
2023/08/24 04:18:44;;;;;;;7.30;4.60;;;;;;;18.25;73.37;99346.80;107414;1302;22440;-38
2023/08/24 04:21:09;;;;;;;17.50;4.60;;;;;;;18.26;72.92;99349.54;107395;1311;22277;-40
2023/08/24 04:23:34;;;;;;;7.00;4.40;;;;;;;18.28;72.13;99350.26;107403;1289;22214;-39
2023/08/24 04:26:00;;;;;;;12.50;4.60;;;;;;;18.30;73.20;99349.20;107420;1312;23139;-40
2023/08/24 04:28:25;;;;;;;12.70;4.50;;;;;;;18.31;72.80;99351.08;107386;1312;23355;-40
2023/08/24 04:30:51;;;;;;;9.80;4.50;;;;;;;18.32;72.06;99353.60;107416;1311;23499;-40
2023/08/24 04:33:17;;;;;;;9.10;4.20;;;;;;;18.33;71.91;99351.05;107431;1312;23422;-38
2023/08/24 04:35:42;;;;;;;10.30;4.40;;;;;;;18.34;72.44;99352.22;107409;1312;22436;-38
2023/08/24 04:38:09;;;;;;;9.10;4.10;;;;;;;18.36;72.02;99352.58;107425;1311;22468;-39
2023/08/24 04:40:54;;;;;;;6.60;4.10;;;;;;;18.37;72.14;99349.96;107426;1312;22219;-38
2023/08/24 04:43:21;;;;;;;9.20;4.20;;;;;;;18.40;72.54;99350.48;107414;1311;22646;-39
2023/08/24 04:45:48;;;;;;;10.30;4.00;;;;;;;18.43;72.85;99346.31;107413;1312;23218;-38
2023/08/24 04:48:14;;;;;;;9.30;4.10;;;;;;;18.45;72.97;99348.11;107436;1312;22249;-38
2023/08/24 04:50:39;;;;;;;10.20;4.20;;;;;;;18.44;72.44;99348.54;107412;1311;22241;-39
2023/08/24 04:53:05;;;;;;;11.60;4.00;;;;;;;18.44;72.21;99350.83;107406;1312;22427;-51
2023/08/24 04:55:30;;;;;;;7.70;4.10;;;;;;;18.47;72.57;99350.25;107317;1312;22630;-41
2023/08/24 04:57:55;;;;;;;9.20;4.20;;;;;;;18.49;72.57;99346.87;107410;1312;22302;-41
2023/08/24 05:00:20;;;;;;;11.00;4.00;;;;;;;18.51;71.95;99348.59;107415;1311;22673;-42
2023/08/24 05:02:46;;;;;;;12.90;4.10;;;;;;;18.54;71.78;99350.84;107440;1311;23004;-41
2023/08/24 05:05:11;;;;;;;9.60;4.20;;;;;;;18.57;71.34;99346.84;107414;1289;22275;-41
2023/08/24 05:07:40;;;;;;;9.10;4.20;;;;;;;18.61;71.93;99348.48;107402;1311;23296;-37
2023/08/24 05:10:06;;;;;;;11.40;4.30;;;;;;;18.64;71.35;99342.89;107413;1311;22424;-37
2023/08/24 05:12:33;;;;;;;8.90;4.60;;;;;;;18.67;72.12;99342.23;107391;1312;22308;-40
2023/08/24 05:14:59;;;;;;;12.40;4.20;;;;;;;18.70;71.63;99346.91;107407;1312;22062;-40
2023/08/24 05:17:26;;;;;;;13.70;3.80;;;;;;;18.72;71.10;99344.45;107387;1311;22139;-41
2023/08/24 05:19:53;;;;;;;;;;;;;;;18.76;70.95;99346.93;107414;1311;22528;-40
2023/08/24 05:22:18;;;;;;;10.30;4.00;;;;;;;18.81;70.55;99347.41;107480;1310;22245;-38
2023/08/24 05:24:44;;;;;;;12.90;4.00;;;;;;;18.85;71.20;99346.04;107454;1311;22471;-40
2023/08/24 05:27:09;;;;;;;11.40;4.20;;;;;;;18.87;70.31;99346.02;107462;1310;22482;-38
2023/08/24 05:29:34;;;;;;;5.30;3.50;;;;;;;18.89;70.09;99349.05;107487;1310;25587;-39
2023/08/24 05:31:59;;;;;;;9.30;4.10;;;;;;;18.93;70.01;99353.88;107503;1310;22232;-39
2023/08/24 05:34:25;;;;;;;9.00;3.70;;;;;;;18.95;69.87;99351.70;107483;1310;23029;-38
2023/08/24 05:36:50;;;;;;;14.20;4.00;;;;;;;18.97;69.57;99352.55;107478;1310;22249;-41
2023/08/24 05:39:16;;;;;;;9.20;3.90;;;;;;;19.02;69.78;99349.86;107465;1311;22254;-39
2023/08/24 05:41:41;;;;;;;12.50;4.60;;;;;;;19.05;69.34;99350.45;107475;1310;22889;-38
2023/08/24 05:44:06;;;;;;;17.60;6.70;;;;;;;19.08;69.25;99348.04;107487;1310;23055;-40
2023/08/24 05:46:32;;;;;;;34.10;13.40;;;;;;;19.11;69.20;99340.14;107481;1311;22807;-40
2023/08/24 05:48:59;;;;;;;22.40;8.70;;;;;;;19.15;69.27;99336.55;107489;1310;22272;-39
2023/08/24 05:51:24;;;;;;;;;;;;;;;19.19;68.60;99341.40;107470;1311;22536;-40
2023/08/24 05:53:50;;;;;;;8.40;4.50;;;;;;;19.24;68.39;99345.43;107482;1310;22334;-40
2023/08/24 05:56:15;;;;;;;5.60;3.70;;;;;;;19.28;67.81;99342.39;107462;1310;22465;-40
2023/08/24 05:58:40;;;;;;;6.50;3.70;;;;;;;19.30;67.88;99341.09;107503;1310;22506;-39
2023/08/24 06:01:06;;;;;;;6.40;3.40;;;;;;;19.35;67.80;99340.83;107485;1310;22449;-40
2023/08/24 06:03:31;;;;;;;10.10;3.60;;;;;;;19.39;67.33;99337.61;107466;1310;22381;-42
2023/08/24 06:06:03;;;;;;;6.00;3.50;;;;;;;19.43;67.46;99339.02;107488;1310;22881;-40
2023/08/24 06:08:29;;;;;;;5.10;3.00;;;;;;;19.49;67.17;99341.98;107308;1310;22379;-40
2023/08/24 06:10:55;;;;;;;4.90;3.00;;;;;;;19.53;66.59;99343.91;107483;1310;23309;-41
2023/08/24 06:13:20;;;;;;;7.70;3.50;;;;;;;19.59;66.53;99344.54;107514;1300;22426;-42
2023/08/24 06:15:45;;;;;;;14.40;3.70;;;;;;;19.63;66.48;99345.73;107486;1310;23219;-41
2023/08/24 06:18:11;;;;;;;5.00;3.20;;;;;;;19.66;66.41;99348.30;107473;1310;22312;-42
2023/08/24 06:20:36;;;;;;;6.20;2.90;;;;;;;19.68;66.11;99351.85;107480;1297;22307;-41
2023/08/24 06:23:02;;;;;;;6.40;3.20;;;;;;;19.70;66.33;99356.84;107485;1310;22364;-39
2023/08/24 06:25:28;;;;;;;10.40;3.60;;;;;;;19.72;66.21;99357.69;107477;1310;23229;-40
2023/08/24 06:27:53;;;;;;;8.70;3.50;;;;;;;19.76;66.33;99355.55;107482;1310;23086;-40
2023/08/24 06:30:19;;;;;;;5.40;2.50;;;;;;;19.81;66.45;99353.84;107482;1310;22437;-40
2023/08/24 06:32:44;;;;;;;4.50;3.30;;;;;;;19.87;66.58;99352.82;107482;1310;22285;-40
2023/08/24 06:35:13;;;;;;;6.50;3.50;;;;;;;19.92;66.58;99349.98;107476;1310;22235;-39
2023/08/24 06:37:38;;;;;;;6.10;3.30;;;;;;;19.96;66.38;99350.52;107446;1310;22563;-40
2023/08/24 06:40:04;;;;;;;5.10;2.80;;;;;;;20.02;66.32;99346.80;107459;1310;22316;-39
2023/08/24 06:42:29;;;;;;;5.80;3.40;;;;;;;20.07;66.31;99353.27;107461;1310;23679;-39
2023/08/24 06:44:55;;;;;;;4.70;2.90;;;;;;;20.12;66.05;99353.84;107450;1310;22497;-40
2023/08/24 06:47:20;;;;;;;7.30;2.90;;;;;;;20.14;65.82;99349.16;107471;1310;22439;-39
2023/08/24 06:49:45;;;;;;;10.90;3.20;;;;;;;20.18;66.00;99353.95;107481;1310;22984;-40
2023/08/24 06:52:11;;;;;;;7.60;3.20;;;;;;;20.21;65.98;99351.59;107474;1310;22288;-42
2023/08/24 06:54:36;;;;;;;12.90;3.70;;;;;;;20.27;66.05;99345.70;107490;1310;22510;-42
2023/08/24 06:57:01;;;;;;;7.40;3.50;;;;;;;20.32;65.92;99348.34;107461;1310;22258;-41
2023/08/24 06:59:26;;;;;;;6.30;3.00;;;;;;;20.37;65.50;99346.70;107481;1310;22532;-41
2023/08/24 07:01:52;;;;;;;5.40;2.80;;;;;;;20.42;65.82;99347.81;107305;1290;23229;-39
2023/08/24 07:04:17;;;;;;;7.60;3.10;;;;;;;20.47;65.73;99344.80;107475;1310;23192;-41
2023/08/24 07:06:43;;;;;;;11.30;3.30;;;;;;;20.51;65.70;99349.46;107484;1310;22261;-42
2023/08/24 07:09:09;;;;;;;5.20;3.20;;;;;;;20.55;65.27;99353.38;107488;1310;23142;-41
2023/08/24 07:11:34;;;;;;;7.30;3.20;;;;;;;20.59;65.48;99348.83;107493;1310;22480;-42
2023/08/24 07:13:59;;;;;;;8.90;2.80;;;;;;;20.64;65.21;99352.80;107460;1310;22232;-41
2023/08/24 07:16:25;;;;;;;8.60;3.10;;;;;;;20.68;65.40;99349.61;107467;1310;22249;-41
2023/08/24 07:18:50;;;;;;;7.90;2.90;;;;;;;20.73;65.31;99344.21;107463;1310;22224;-38
2023/08/24 07:21:17;;;;;;;9.70;3.00;;;;;;;20.78;64.93;99349.09;107459;1310;23068;-42
2023/08/24 07:23:42;;;;;;;6.40;3.20;;;;;;;20.81;64.43;99348.16;107495;1310;22439;-40
2023/08/24 07:26:08;;;;;;;5.30;2.80;;;;;;;20.85;64.28;99348.33;107469;1310;22317;-39
2023/08/24 07:28:33;;;;;;;7.20;2.90;;;;;;;20.88;64.28;99350.34;107490;1310;22521;-39
2023/08/24 07:31:06;;;;;;;4.80;2.50;;;;;;;20.95;64.11;99356.06;107490;1310;23186;-39
2023/08/24 07:33:32;;;;;;;8.90;2.90;;;;;;;21.01;63.32;99354.83;107496;1310;22565;-39
2023/08/24 07:35:57;;;;;;;4.50;2.70;;;;;;;21.07;63.35;99353.45;107460;1310;22666;-40
2023/08/24 07:38:22;;;;;;;6.20;2.70;;;;;;;21.16;63.08;99352.08;107498;1310;22553;-40
2023/08/24 07:40:48;;;;;;;8.10;2.80;;;;;;;21.23;63.11;99351.45;107497;1310;22248;-41
2023/08/24 07:43:13;;;;;;;6.80;2.80;;;;;;;21.29;62.61;99351.88;107458;1310;22423;-41
2023/08/24 07:45:40;;;;;;;8.90;2.70;;;;;;;21.35;62.41;99355.34;107392;1310;22723;-39
2023/08/24 07:48:06;;;;;;;9.60;2.90;;;;;;;21.44;61.64;99357.33;107486;1310;23168;-40
2023/08/24 07:50:32;;;;;;;4.60;2.50;;;;;;;21.53;61.43;99358.67;107481;1310;22202;-42
2023/08/24 07:52:57;;;;;;;9.50;2.50;;;;;;;21.57;60.63;99360.20;107483;1310;22224;-39
2023/08/24 07:55:22;;;;;;;4.80;2.40;;;;;;;21.62;60.47;99363.77;107484;1310;22501;-40
2023/08/24 07:57:48;;;;;;;6.90;2.60;;;;;;;21.69;60.07;99364.94;107495;1294;22402;-39
2023/08/24 08:00:14;;;;;;;5.80;2.60;;;;;;;21.73;60.22;99361.63;107483;1310;22270;-40
2023/08/24 08:02:40;;;;;;;10.00;2.40;;;;;;;21.81;60.65;99360.66;107512;1310;22249;-40
2023/08/24 08:05:10;;;;;;;6.50;2.30;;;;;;;21.88;59.67;99363.28;107500;1292;22448;-40
2023/08/24 08:07:35;;;;;;;3.70;2.10;;;;;;;21.95;59.96;99363.81;107474;1310;22480;-41
2023/08/24 08:10:01;;;;;;;8.80;2.40;;;;;;;22.04;59.39;99360.64;107495;1310;22258;-40
2023/08/24 08:12:26;;;;;;;3.60;2.10;;;;;;;22.10;58.85;99358.19;107487;1310;22409;-40
2023/08/24 08:14:51;;;;;;;7.60;2.10;;;;;;;22.19;59.05;99359.80;107478;1310;22274;-39
2023/08/24 08:17:16;;;;;;;5.60;2.30;;;;;;;22.26;58.20;99356.44;107511;1310;22273;-40
2023/08/24 08:19:42;;;;;;;3.30;2.00;;;;;;;22.31;57.46;99356.61;107483;1310;22249;-40
2023/08/24 08:22:07;;;;;;;2.90;1.90;;;;;;;22.38;57.01;99356.52;107486;1287;22704;-39
2023/08/24 08:24:33;;;;;;;6.00;2.00;;;;;;;22.43;56.14;99354.72;107503;1310;23297;-39
2023/08/24 08:26:58;;;;;;;4.40;2.30;;;;;;;22.52;56.79;99352.14;107700;1309;22406;-41
2023/08/24 08:29:24;;;;;;;8.90;2.00;;;;;;;22.62;56.91;99357.86;107693;1309;22254;-42
2023/08/24 08:31:49;;;;;;;3.70;1.90;;;;;;;22.69;56.56;99356.77;107689;1309;23125;-41
2023/08/24 08:34:14;;;;;;;3.80;2.00;;;;;;;22.77;56.47;99353.64;107691;1309;22776;-41
2023/08/24 08:36:40;;;;;;;3.90;2.10;;;;;;;22.87;56.92;99348.29;107721;1309;23320;-42
2023/08/24 08:39:05;;;;;;;3.50;1.80;;;;;;;22.96;55.88;99352.70;107684;1309;22233;-41
2023/08/24 08:41:34;;;;;;;19.10;2.30;;;;;;;23.04;55.38;99354.78;107728;1309;22270;-40
2023/08/24 08:44:05;;;;;;;4.20;1.90;;;;;;;23.13;55.07;99358.52;107700;1309;22884;-43
2023/08/24 08:46:32;;;;;;;5.80;1.90;;;;;;;23.22;54.46;99357.30;107695;1309;22435;-40
2023/08/24 08:48:59;;;;;;;6.70;1.80;;;;;;;23.35;54.62;99351.31;107721;1309;22362;-39
2023/08/24 08:51:25;;;;;;;3.50;1.80;;;;;;;23.50;55.09;99350.35;107732;1309;22530;-41
2023/08/24 08:53:50;;;;;;;3.70;1.60;;;;;;;23.67;53.48;99355.15;107697;1309;23019;-40
2023/08/24 08:56:16;;;;;;;7.80;1.90;;;;;;;23.80;52.73;99354.23;107691;1309;22272;-40
2023/08/24 08:58:43;;;;;;;5.40;1.40;;;;;;;23.93;52.20;99349.60;107699;1309;22268;-42
2023/08/24 09:01:09;;;;;;;4.40;1.60;;;;;;;24.04;51.33;99347.70;107697;1309;22050;-42
2023/08/24 09:03:35;;;;;;;3.30;1.80;;;;;;;24.20;50.99;99349.20;107713;1309;22372;-41
2023/08/24 09:06:00;;;;;;;3.50;1.80;;;;;;;24.34;50.83;99354.35;107719;1309;23046;-40
2023/08/24 09:08:26;;;;;;;3.50;1.70;;;;;;;24.50;49.69;99354.64;107696;1309;22296;-42
2023/08/24 09:10:51;;;;;;;5.00;2.00;;;;;;;24.75;51.34;99357.74;107731;1301;22302;-40
2023/08/24 09:13:17;;;;;;;2.20;1.90;;;;;;;24.96;49.48;99353.36;107675;1309;22437;-40
2023/08/24 09:15:43;;;;;;;2.60;1.60;;;;;;;25.15;48.56;99353.88;107721;1309;22459;-42
2023/08/24 09:18:08;;;;;;;4.10;1.30;;;;;;;25.38;47.18;99356.23;107701;1309;22495;-41
2023/08/24 09:20:34;;;;;;;4.20;1.60;;;;;;;25.73;47.49;99355.02;107715;1309;22313;-39
2023/08/24 09:23:00;;;;;;;2.80;1.50;;;;;;;26.10;47.88;99356.60;107720;1309;22354;-44
2023/08/24 09:25:25;;;;;;;4.60;1.50;;;;;;;26.59;45.51;99359.40;107724;1309;22371;-45
2023/08/24 09:28:03;;;;;;;7.10;1.40;;;;;;;27.16;43.73;99352.56;107677;1309;22254;-42
